sensor_id;sensor_type;location;lat;lon;timestamp;P1;durP1;ratioP1;P2;durP2;ratioP2
11988;SDS011;6054;50.966;7.094;2023-07-28T00:01:56;3.33;;;2.17;;
11988;SDS011;6054;50.966;7.094;2023-07-28T00:04:23;3.95;;;1.90;;
11988;SDS011;6054;50.966;7.094;2023-07-28T00:06:50;4.78;;;2.40;;
11988;SDS011;6054;50.966;7.094;2023-07-28T00:09:18;3.28;;;2.08;;
11988;SDS011;6054;50.966;7.094;2023-07-28T00:11:44;2.75;;;2.15;;
11988;SDS011;6054;50.966;7.094;2023-07-28T00:14:11;5.15;;;1.80;;
11988;SDS011;6054;50.966;7.094;2023-07-28T00:16:38;5.68;;;2.47;;
11988;SDS011;6054;50.966;7.094;2023-07-28T00:19:04;5.57;;;2.13;;
11988;SDS011;6054;50.966;7.094;2023-07-28T00:21:31;3.45;;;2.33;;
11988;SDS011;6054;50.966;7.094;2023-07-28T00:23:58;4.75;;;2.33;;
11988;SDS011;6054;50.966;7.094;2023-07-28T00:26:26;2.83;;;2.28;;
11988;SDS011;6054;50.966;7.094;2023-07-28T00:28:53;5.40;;;1.98;;
11988;SDS011;6054;50.966;7.094;2023-07-28T00:31:19;4.03;;;1.92;;
11988;SDS011;6054;50.966;7.094;2023-07-28T00:33:46;4.63;;;2.30;;
11988;SDS011;6054;50.966;7.094;2023-07-28T00:36:13;3.40;;;1.80;;
11988;SDS011;6054;50.966;7.094;2023-07-28T00:38:39;3.85;;;1.83;;
11988;SDS011;6054;50.966;7.094;2023-07-28T00:41:06;2.85;;;1.90;;
11988;SDS011;6054;50.966;7.094;2023-07-28T00:43:34;4.30;;;1.90;;
11988;SDS011;6054;50.966;7.094;2023-07-28T00:46:01;5.13;;;2.13;;
11988;SDS011;6054;50.966;7.094;2023-07-28T00:48:28;2.40;;;1.80;;
11988;SDS011;6054;50.966;7.094;2023-07-28T00:50:55;5.65;;;2.58;;
11988;SDS011;6054;50.966;7.094;2023-07-28T00:53:22;5.55;;;2.40;;
11988;SDS011;6054;50.966;7.094;2023-07-28T00:55:50;2.92;;;1.80;;
11988;SDS011;6054;50.966;7.094;2023-07-28T00:58:17;2.08;;;1.65;;
11988;SDS011;6054;50.966;7.094;2023-07-28T01:00:46;1.95;;;1.77;;
11988;SDS011;6054;50.966;7.094;2023-07-28T01:03:12;4.13;;;2.10;;
11988;SDS011;6054;50.966;7.094;2023-07-28T01:05:43;5.32;;;2.28;;
11988;SDS011;6054;50.966;7.094;2023-07-28T01:08:15;5.22;;;2.10;;
11988;SDS011;6054;50.966;7.094;2023-07-28T01:10:49;2.65;;;1.90;;
11988;SDS011;6054;50.966;7.094;2023-07-28T01:13:16;2.35;;;1.80;;
11988;SDS011;6054;50.966;7.094;2023-07-28T01:15:43;3.65;;;2.15;;
11988;SDS011;6054;50.966;7.094;2023-07-28T01:18:11;5.28;;;2.20;;
11988;SDS011;6054;50.966;7.094;2023-07-28T01:20:38;3.83;;;2.10;;
11988;SDS011;6054;50.966;7.094;2023-07-28T01:23:08;3.13;;;2.13;;
11988;SDS011;6054;50.966;7.094;2023-07-28T01:25:47;3.13;;;1.95;;
11988;SDS011;6054;50.966;7.094;2023-07-28T01:28:22;3.75;;;1.98;;
11988;SDS011;6054;50.966;7.094;2023-07-28T01:30:49;1.90;;;1.80;;
11988;SDS011;6054;50.966;7.094;2023-07-28T01:33:16;4.03;;;2.10;;
11988;SDS011;6054;50.966;7.094;2023-07-28T01:35:43;2.67;;;1.85;;
11988;SDS011;6054;50.966;7.094;2023-07-28T01:38:10;6.65;;;2.38;;
11988;SDS011;6054;50.966;7.094;2023-07-28T01:40:37;1.83;;;1.73;;
11988;SDS011;6054;50.966;7.094;2023-07-28T01:43:04;10.02;;;1.90;;
11988;SDS011;6054;50.966;7.094;2023-07-28T01:45:32;4.22;;;1.80;;
11988;SDS011;6054;50.966;7.094;2023-07-28T01:47:59;6.43;;;1.80;;
11988;SDS011;6054;50.966;7.094;2023-07-28T01:50:26;3.47;;;1.60;;
11988;SDS011;6054;50.966;7.094;2023-07-28T01:52:52;6.13;;;1.70;;
11988;SDS011;6054;50.966;7.094;2023-07-28T01:55:19;3.85;;;1.83;;
11988;SDS011;6054;50.966;7.094;2023-07-28T01:57:50;6.82;;;2.95;;
11988;SDS011;6054;50.966;7.094;2023-07-28T02:00:20;3.88;;;2.30;;
11988;SDS011;6054;50.966;7.094;2023-07-28T02:02:48;8.52;;;2.38;;
11988;SDS011;6054;50.966;7.094;2023-07-28T02:05:15;3.65;;;1.85;;
11988;SDS011;6054;50.966;7.094;2023-07-28T02:07:42;2.22;;;1.63;;
11988;SDS011;6054;50.966;7.094;2023-07-28T02:10:09;1.70;;;1.58;;
11988;SDS011;6054;50.966;7.094;2023-07-28T02:12:36;7.10;;;2.28;;
11988;SDS011;6054;50.966;7.094;2023-07-28T02:15:03;6.13;;;1.92;;
11988;SDS011;6054;50.966;7.094;2023-07-28T02:17:31;3.05;;;2.08;;
11988;SDS011;6054;50.966;7.094;2023-07-28T02:19:59;3.25;;;1.90;;
11988;SDS011;6054;50.966;7.094;2023-07-28T02:22:26;4.68;;;1.83;;
11988;SDS011;6054;50.966;7.094;2023-07-28T02:24:53;4.35;;;2.08;;
11988;SDS011;6054;50.966;7.094;2023-07-28T02:27:19;3.47;;;1.85;;
11988;SDS011;6054;50.966;7.094;2023-07-28T02:29:46;3.97;;;2.00;;
11988;SDS011;6054;50.966;7.094;2023-07-28T02:32:13;3.58;;;2.30;;
11988;SDS011;6054;50.966;7.094;2023-07-28T02:34:39;3.10;;;2.10;;
11988;SDS011;6054;50.966;7.094;2023-07-28T02:37:08;2.28;;;1.92;;
11988;SDS011;6054;50.966;7.094;2023-07-28T02:39:34;3.10;;;1.77;;
11988;SDS011;6054;50.966;7.094;2023-07-28T02:42:01;3.00;;;1.98;;
11988;SDS011;6054;50.966;7.094;2023-07-28T02:44:28;3.03;;;2.10;;
11988;SDS011;6054;50.966;7.094;2023-07-28T02:46:54;8.00;;;2.38;;
11988;SDS011;6054;50.966;7.094;2023-07-28T02:49:21;3.53;;;2.30;;
11988;SDS011;6054;50.966;7.094;2023-07-28T02:51:48;1.88;;;1.70;;
11988;SDS011;6054;50.966;7.094;2023-07-28T02:54:16;2.40;;;1.40;;
11988;SDS011;6054;50.966;7.094;2023-07-28T02:56:43;1.90;;;1.77;;
11988;SDS011;6054;50.966;7.094;2023-07-28T02:59:10;1.80;;;1.50;;
11988;SDS011;6054;50.966;7.094;2023-07-28T03:01:36;2.40;;;1.50;;
11988;SDS011;6054;50.966;7.094;2023-07-28T03:04:03;4.13;;;1.63;;
11988;SDS011;6054;50.966;7.094;2023-07-28T03:06:30;3.08;;;1.38;;
11988;SDS011;6054;50.966;7.094;2023-07-28T03:08:58;2.58;;;1.20;;
11988;SDS011;6054;50.966;7.094;2023-07-28T03:11:26;4.20;;;1.80;;
11988;SDS011;6054;50.966;7.094;2023-07-28T03:13:53;3.97;;;1.88;;
11988;SDS011;6054;50.966;7.094;2023-07-28T03:16:19;2.53;;;2.10;;
11988;SDS011;6054;50.966;7.094;2023-07-28T03:18:46;2.88;;;2.35;;
11988;SDS011;6054;50.966;7.094;2023-07-28T03:21:13;3.25;;;2.83;;
11988;SDS011;6054;50.966;7.094;2023-07-28T03:23:40;4.25;;;2.83;;
11988;SDS011;6054;50.966;7.094;2023-07-28T03:26:06;8.85;;;2.90;;
11988;SDS011;6054;50.966;7.094;2023-07-28T03:28:34;5.18;;;3.28;;
11988;SDS011;6054;50.966;7.094;2023-07-28T03:31:01;4.45;;;3.35;;
11988;SDS011;6054;50.966;7.094;2023-07-28T03:33:28;5.38;;;3.33;;
11988;SDS011;6054;50.966;7.094;2023-07-28T03:35:54;10.73;;;4.15;;
11988;SDS011;6054;50.966;7.094;2023-07-28T03:38:21;6.13;;;3.65;;
11988;SDS011;6054;50.966;7.094;2023-07-28T03:40:49;6.35;;;2.65;;
11988;SDS011;6054;50.966;7.094;2023-07-28T03:43:16;6.88;;;2.80;;
11988;SDS011;6054;50.966;7.094;2023-07-28T03:45:44;5.05;;;2.90;;
11988;SDS011;6054;50.966;7.094;2023-07-28T03:48:11;3.72;;;2.65;;
11988;SDS011;6054;50.966;7.094;2023-07-28T03:50:37;7.97;;;2.65;;
11988;SDS011;6054;50.966;7.094;2023-07-28T03:53:04;2.60;;;2.40;;
11988;SDS011;6054;50.966;7.094;2023-07-28T03:55:31;4.45;;;2.70;;
11988;SDS011;6054;50.966;7.094;2023-07-28T03:57:58;3.13;;;2.85;;
11988;SDS011;6054;50.966;7.094;2023-07-28T04:00:24;4.68;;;2.80;;
11988;SDS011;6054;50.966;7.094;2023-07-28T04:02:52;4.88;;;2.92;;
11988;SDS011;6054;50.966;7.094;2023-07-28T04:05:19;3.83;;;2.75;;
11988;SDS011;6054;50.966;7.094;2023-07-28T04:07:46;5.25;;;2.60;;
11988;SDS011;6054;50.966;7.094;2023-07-28T04:10:13;3.88;;;3.03;;
11988;SDS011;6054;50.966;7.094;2023-07-28T04:12:39;9.43;;;2.80;;
11988;SDS011;6054;50.966;7.094;2023-07-28T04:15:07;3.85;;;3.42;;
11988;SDS011;6054;50.966;7.094;2023-07-28T04:17:34;6.53;;;2.80;;
11988;SDS011;6054;50.966;7.094;2023-07-28T04:20:02;2.67;;;2.42;;
11988;SDS011;6054;50.966;7.094;2023-07-28T04:22:29;3.65;;;2.47;;
11988;SDS011;6054;50.966;7.094;2023-07-28T04:24:56;4.47;;;2.53;;
11988;SDS011;6054;50.966;7.094;2023-07-28T04:27:23;6.60;;;2.78;;
11988;SDS011;6054;50.966;7.094;2023-07-28T04:29:50;4.18;;;2.63;;
11988;SDS011;6054;50.966;7.094;2023-07-28T04:32:16;3.80;;;2.00;;
11988;SDS011;6054;50.966;7.094;2023-07-28T04:34:43;4.53;;;2.25;;
11988;SDS011;6054;50.966;7.094;2023-07-28T04:37:11;4.18;;;2.17;;
11988;SDS011;6054;50.966;7.094;2023-07-28T04:39:38;3.78;;;2.67;;
11988;SDS011;6054;50.966;7.094;2023-07-28T04:42:05;4.90;;;2.47;;
11988;SDS011;6054;50.966;7.094;2023-07-28T04:44:32;4.72;;;2.42;;
11988;SDS011;6054;50.966;7.094;2023-07-28T04:46:59;3.17;;;2.47;;
11988;SDS011;6054;50.966;7.094;2023-07-28T04:49:26;3.22;;;2.72;;
11988;SDS011;6054;50.966;7.094;2023-07-28T04:51:52;5.55;;;2.30;;
11988;SDS011;6054;50.966;7.094;2023-07-28T04:54:20;4.13;;;2.80;;
11988;SDS011;6054;50.966;7.094;2023-07-28T04:56:47;5.05;;;2.15;;
11988;SDS011;6054;50.966;7.094;2023-07-28T04:59:15;5.78;;;2.58;;
11988;SDS011;6054;50.966;7.094;2023-07-28T05:01:42;4.32;;;2.90;;
11988;SDS011;6054;50.966;7.094;2023-07-28T05:04:08;5.85;;;2.70;;
11988;SDS011;6054;50.966;7.094;2023-07-28T05:06:35;5.20;;;3.03;;
11988;SDS011;6054;50.966;7.094;2023-07-28T05:09:02;5.60;;;2.67;;
11988;SDS011;6054;50.966;7.094;2023-07-28T05:11:30;6.78;;;2.53;;
11988;SDS011;6054;50.966;7.094;2023-07-28T05:13:57;3.03;;;1.73;;
11988;SDS011;6054;50.966;7.094;2023-07-28T05:16:23;4.60;;;2.13;;
11988;SDS011;6054;50.966;7.094;2023-07-28T05:18:50;4.90;;;2.45;;
11988;SDS011;6054;50.966;7.094;2023-07-28T05:21:17;2.50;;;2.03;;
11988;SDS011;6054;50.966;7.094;2023-07-28T05:23:44;2.05;;;1.85;;
11988;SDS011;6054;50.966;7.094;2023-07-28T05:26:10;2.42;;;1.80;;
11988;SDS011;6054;50.966;7.094;2023-07-28T05:28:38;5.15;;;2.42;;
11988;SDS011;6054;50.966;7.094;2023-07-28T05:31:05;10.93;;;2.72;;
11988;SDS011;6054;50.966;7.094;2023-07-28T05:33:32;7.22;;;2.85;;
11988;SDS011;6054;50.966;7.094;2023-07-28T05:35:59;4.50;;;2.65;;
11988;SDS011;6054;50.966;7.094;2023-07-28T05:38:26;7.30;;;2.80;;
11988;SDS011;6054;50.966;7.094;2023-07-28T05:40:55;4.10;;;2.47;;
11988;SDS011;6054;50.966;7.094;2023-07-28T05:43:23;5.07;;;2.63;;
11988;SDS011;6054;50.966;7.094;2023-07-28T05:45:51;6.80;;;2.60;;
11988;SDS011;6054;50.966;7.094;2023-07-28T05:48:18;3.42;;;2.40;;
11988;SDS011;6054;50.966;7.094;2023-07-28T05:50:44;3.10;;;2.20;;
11988;SDS011;6054;50.966;7.094;2023-07-28T05:53:11;2.67;;;2.00;;
11988;SDS011;6054;50.966;7.094;2023-07-28T05:55:38;3.40;;;1.80;;
11988;SDS011;6054;50.966;7.094;2023-07-28T05:58:05;4.05;;;1.80;;
11988;SDS011;6054;50.966;7.094;2023-07-28T06:00:32;2.65;;;1.92;;
11988;SDS011;6054;50.966;7.094;2023-07-28T06:03:00;5.30;;;1.85;;
11988;SDS011;6054;50.966;7.094;2023-07-28T06:05:27;4.05;;;1.83;;
11988;SDS011;6054;50.966;7.094;2023-07-28T06:07:54;4.35;;;1.60;;
11988;SDS011;6054;50.966;7.094;2023-07-28T06:10:20;3.38;;;1.65;;
11988;SDS011;6054;50.966;7.094;2023-07-28T06:12:47;3.47;;;1.50;;
11988;SDS011;6054;50.966;7.094;2023-07-28T06:15:14;2.05;;;1.58;;
11988;SDS011;6054;50.966;7.094;2023-07-28T06:17:41;3.75;;;1.85;;
11988;SDS011;6054;50.966;7.094;2023-07-28T06:20:10;4.65;;;1.85;;
11988;SDS011;6054;50.966;7.094;2023-07-28T06:22:37;3.28;;;2.00;;
11988;SDS011;6054;50.966;7.094;2023-07-28T06:25:04;10.32;;;2.17;;
11988;SDS011;6054;50.966;7.094;2023-07-28T06:27:32;5.65;;;1.60;;
11988;SDS011;6054;50.966;7.094;2023-07-28T06:29:59;2.83;;;1.80;;
11988;SDS011;6054;50.966;7.094;2023-07-28T06:32:25;2.42;;;1.70;;
11988;SDS011;6054;50.966;7.094;2023-07-28T06:34:53;5.05;;;2.25;;
11988;SDS011;6054;50.966;7.094;2023-07-28T06:37:21;5.38;;;1.90;;
11988;SDS011;6054;50.966;7.094;2023-07-28T06:39:48;6.72;;;2.17;;
11988;SDS011;6054;50.966;7.094;2023-07-28T06:42:16;5.13;;;1.90;;
11988;SDS011;6054;50.966;7.094;2023-07-28T06:44:48;4.80;;;1.70;;
11988;SDS011;6054;50.966;7.094;2023-07-28T06:47:15;2.22;;;1.98;;
11988;SDS011;6054;50.966;7.094;2023-07-28T06:49:42;3.70;;;1.90;;
11988;SDS011;6054;50.966;7.094;2023-07-28T06:52:09;4.80;;;1.52;;
11988;SDS011;6054;50.966;7.094;2023-07-28T06:54:37;4.47;;;2.33;;
11988;SDS011;6054;50.966;7.094;2023-07-28T06:57:04;2.30;;;2.08;;
11988;SDS011;6054;50.966;7.094;2023-07-28T06:59:32;4.65;;;1.90;;
11988;SDS011;6054;50.966;7.094;2023-07-28T07:01:59;5.57;;;1.88;;
11988;SDS011;6054;50.966;7.094;2023-07-28T07:04:26;6.57;;;2.67;;
11988;SDS011;6054;50.966;7.094;2023-07-28T07:06:53;2.13;;;1.88;;
11988;SDS011;6054;50.966;7.094;2023-07-28T07:09:19;3.42;;;2.10;;
11988;SDS011;6054;50.966;7.094;2023-07-28T07:11:47;2.53;;;1.80;;
11988;SDS011;6054;50.966;7.094;2023-07-28T07:14:14;3.20;;;2.45;;
11988;SDS011;6054;50.966;7.094;2023-07-28T07:16:41;5.35;;;2.40;;
11988;SDS011;6054;50.966;7.094;2023-07-28T07:19:08;3.92;;;2.42;;
11988;SDS011;6054;50.966;7.094;2023-07-28T07:21:35;3.50;;;2.53;;
11988;SDS011;6054;50.966;7.094;2023-07-28T07:24:02;3.90;;;2.60;;
11988;SDS011;6054;50.966;7.094;2023-07-28T07:26:29;4.95;;;2.42;;
11988;SDS011;6054;50.966;7.094;2023-07-28T07:28:58;5.55;;;2.33;;
11988;SDS011;6054;50.966;7.094;2023-07-28T07:31:25;2.45;;;2.25;;
11988;SDS011;6054;50.966;7.094;2023-07-28T07:33:52;5.15;;;2.22;;
11988;SDS011;6054;50.966;7.094;2023-07-28T07:36:19;3.90;;;2.20;;
11988;SDS011;6054;50.966;7.094;2023-07-28T07:38:45;5.68;;;2.63;;
11988;SDS011;6054;50.966;7.094;2023-07-28T07:41:14;2.38;;;2.17;;
11988;SDS011;6054;50.966;7.094;2023-07-28T07:43:44;5.75;;;2.53;;
11988;SDS011;6054;50.966;7.094;2023-07-28T07:46:13;2.97;;;2.38;;
11988;SDS011;6054;50.966;7.094;2023-07-28T07:48:40;4.00;;;2.45;;
11988;SDS011;6054;50.966;7.094;2023-07-28T07:51:08;3.97;;;2.70;;
11988;SDS011;6054;50.966;7.094;2023-07-28T07:53:35;2.92;;;2.55;;
11988;SDS011;6054;50.966;7.094;2023-07-28T07:56:02;4.68;;;2.58;;
11988;SDS011;6054;50.966;7.094;2023-07-28T07:58:29;6.82;;;2.95;;
11988;SDS011;6054;50.966;7.094;2023-07-28T08:00:56;3.53;;;2.72;;
11988;SDS011;6054;50.966;7.094;2023-07-28T08:03:25;4.18;;;2.75;;
11988;SDS011;6054;50.966;7.094;2023-07-28T08:05:52;4.47;;;2.50;;
11988;SDS011;6054;50.966;7.094;2023-07-28T08:08:18;3.90;;;2.65;;
11988;SDS011;6054;50.966;7.094;2023-07-28T08:10:46;5.28;;;2.67;;
11988;SDS011;6054;50.966;7.094;2023-07-28T08:13:13;4.80;;;3.28;;
11988;SDS011;6054;50.966;7.094;2023-07-28T08:15:39;4.30;;;2.92;;
11988;SDS011;6054;50.966;7.094;2023-07-28T08:18:06;4.05;;;3.00;;
11988;SDS011;6054;50.966;7.094;2023-07-28T08:20:34;5.65;;;2.75;;
11988;SDS011;6054;50.966;7.094;2023-07-28T08:23:01;5.13;;;3.10;;
11988;SDS011;6054;50.966;7.094;2023-07-28T08:25:28;4.90;;;3.17;;
11988;SDS011;6054;50.966;7.094;2023-07-28T08:27:55;6.00;;;3.20;;
11988;SDS011;6054;50.966;7.094;2023-07-28T08:30:21;4.18;;;2.60;;
11988;SDS011;6054;50.966;7.094;2023-07-28T08:32:48;8.45;;;2.80;;
11988;SDS011;6054;50.966;7.094;2023-07-28T08:35:15;4.13;;;3.10;;
11988;SDS011;6054;50.966;7.094;2023-07-28T08:37:44;4.57;;;3.17;;
11988;SDS011;6054;50.966;7.094;2023-07-28T08:40:11;3.22;;;2.85;;
11988;SDS011;6054;50.966;7.094;2023-07-28T08:42:38;6.28;;;2.67;;
11988;SDS011;6054;50.966;7.094;2023-07-28T08:45:06;4.57;;;3.55;;
11988;SDS011;6054;50.966;7.094;2023-07-28T08:47:34;2.80;;;2.60;;
11988;SDS011;6054;50.966;7.094;2023-07-28T08:50:02;5.55;;;3.63;;
11988;SDS011;6054;50.966;7.094;2023-07-28T08:52:29;4.13;;;2.70;;
11988;SDS011;6054;50.966;7.094;2023-07-28T08:54:57;3.80;;;2.95;;
11988;SDS011;6054;50.966;7.094;2023-07-28T08:57:24;3.53;;;2.65;;
11988;SDS011;6054;50.966;7.094;2023-07-28T08:59:51;3.53;;;2.72;;
11988;SDS011;6054;50.966;7.094;2023-07-28T09:02:18;2.63;;;2.42;;
11988;SDS011;6054;50.966;7.094;2023-07-28T09:04:47;3.47;;;2.13;;
11988;SDS011;6054;50.966;7.094;2023-07-28T09:07:14;3.03;;;2.63;;
11988;SDS011;6054;50.966;7.094;2023-07-28T09:09:41;2.60;;;2.40;;
11988;SDS011;6054;50.966;7.094;2023-07-28T09:12:09;3.13;;;2.88;;
11988;SDS011;6054;50.966;7.094;2023-07-28T09:14:37;3.05;;;2.75;;
11988;SDS011;6054;50.966;7.094;2023-07-28T09:17:07;6.97;;;2.58;;
11988;SDS011;6054;50.966;7.094;2023-07-28T09:19:35;2.30;;;2.20;;
11988;SDS011;6054;50.966;7.094;2023-07-28T09:22:15;1.95;;;1.85;;
11988;SDS011;6054;50.966;7.094;2023-07-28T09:24:43;1.70;;;1.58;;
11988;SDS011;6054;50.966;7.094;2023-07-28T09:27:18;2.40;;;1.88;;
11988;SDS011;6054;50.966;7.094;2023-07-28T09:29:47;1.73;;;1.63;;
11988;SDS011;6054;50.966;7.094;2023-07-28T09:32:14;1.98;;;1.88;;
11988;SDS011;6054;50.966;7.094;2023-07-28T09:34:41;6.40;;;2.38;;
11988;SDS011;6054;50.966;7.094;2023-07-28T09:37:08;3.70;;;2.55;;
11988;SDS011;6054;50.966;7.094;2023-07-28T09:39:36;3.55;;;2.13;;
11988;SDS011;6054;50.966;7.094;2023-07-28T09:42:03;2.88;;;1.90;;
11988;SDS011;6054;50.966;7.094;2023-07-28T09:44:35;1.70;;;1.60;;
11988;SDS011;6054;50.966;7.094;2023-07-28T09:47:02;1.27;;;1.27;;
11988;SDS011;6054;50.966;7.094;2023-07-28T09:49:33;3.65;;;1.70;;
11988;SDS011;6054;50.966;7.094;2023-07-28T09:52:03;4.57;;;1.52;;
11988;SDS011;6054;50.966;7.094;2023-07-28T09:54:33;1.38;;;1.33;;
11988;SDS011;6054;50.966;7.094;2023-07-28T09:57:04;1.60;;;1.50;;
11988;SDS011;6054;50.966;7.094;2023-07-28T09:59:39;1.45;;;1.40;;
11988;SDS011;6054;50.966;7.094;2023-07-28T10:02:07;1.60;;;1.60;;
11988;SDS011;6054;50.966;7.094;2023-07-28T10:04:35;2.38;;;1.60;;
11988;SDS011;6054;50.966;7.094;2023-07-28T10:07:03;4.93;;;1.80;;
11988;SDS011;6054;50.966;7.094;2023-07-28T10:09:31;4.03;;;1.92;;
11988;SDS011;6054;50.966;7.094;2023-07-28T10:11:59;1.92;;;1.83;;
11988;SDS011;6054;50.966;7.094;2023-07-28T10:14:28;1.88;;;1.77;;
11988;SDS011;6054;50.966;7.094;2023-07-28T10:16:58;2.00;;;1.90;;
11988;SDS011;6054;50.966;7.094;2023-07-28T10:19:26;3.38;;;1.73;;
11988;SDS011;6054;50.966;7.094;2023-07-28T10:22:00;1.70;;;1.60;;
11988;SDS011;6054;50.966;7.094;2023-07-28T10:27:27;1.85;;;1.30;;
11988;SDS011;6054;50.966;7.094;2023-07-28T10:29:58;1.85;;;1.38;;
11988;SDS011;6054;50.966;7.094;2023-07-28T10:32:28;1.30;;;1.20;;
11988;SDS011;6054;50.966;7.094;2023-07-28T10:35:06;2.95;;;1.70;;
11988;SDS011;6054;50.966;7.094;2023-07-28T10:37:33;2.78;;;1.20;;
11988;SDS011;6054;50.966;7.094;2023-07-28T10:42:50;1.77;;;1.20;;
11988;SDS011;6054;50.966;7.094;2023-07-28T10:45:17;1.92;;;1.40;;
11988;SDS011;6054;50.966;7.094;2023-07-28T10:47:46;3.58;;;1.60;;
11988;SDS011;6054;50.966;7.094;2023-07-28T10:50:13;2.70;;;1.17;;
11988;SDS011;6054;50.966;7.094;2023-07-28T10:52:40;1.60;;;1.50;;
11988;SDS011;6054;50.966;7.094;2023-07-28T10:55:11;1.48;;;1.30;;
11988;SDS011;6054;50.966;7.094;2023-07-28T10:57:40;1.48;;;1.20;;
11988;SDS011;6054;50.966;7.094;2023-07-28T11:00:07;1.00;;;1.00;;
11988;SDS011;6054;50.966;7.094;2023-07-28T11:02:37;1.60;;;1.05;;
11988;SDS011;6054;50.966;7.094;2023-07-28T11:05:09;1.55;;;1.30;;
11988;SDS011;6054;50.966;7.094;2023-07-28T11:07:37;1.40;;;1.00;;
11988;SDS011;6054;50.966;7.094;2023-07-28T11:10:07;1.20;;;1.00;;
11988;SDS011;6054;50.966;7.094;2023-07-28T11:12:34;1.48;;;1.38;;
11988;SDS011;6054;50.966;7.094;2023-07-28T11:15:01;0.80;;;0.80;;
11988;SDS011;6054;50.966;7.094;2023-07-28T11:17:28;0.70;;;0.70;;
11988;SDS011;6054;50.966;7.094;2023-07-28T11:19:55;0.90;;;0.90;;
11988;SDS011;6054;50.966;7.094;2023-07-28T11:22:23;1.00;;;1.00;;
11988;SDS011;6054;50.966;7.094;2023-07-28T11:24:50;0.80;;;0.80;;
11988;SDS011;6054;50.966;7.094;2023-07-28T11:27:17;1.33;;;1.08;;
11988;SDS011;6054;50.966;7.094;2023-07-28T11:29:45;0.85;;;0.85;;
11988;SDS011;6054;50.966;7.094;2023-07-28T11:32:13;0.80;;;0.80;;
11988;SDS011;6054;50.966;7.094;2023-07-28T11:34:42;0.90;;;0.90;;
11988;SDS011;6054;50.966;7.094;2023-07-28T11:37:10;0.95;;;0.95;;
11988;SDS011;6054;50.966;7.094;2023-07-28T11:39:39;1.33;;;1.20;;
11988;SDS011;6054;50.966;7.094;2023-07-28T11:42:06;1.20;;;1.10;;
11988;SDS011;6054;50.966;7.094;2023-07-28T11:44:35;1.30;;;1.20;;
11988;SDS011;6054;50.966;7.094;2023-07-28T11:47:04;1.00;;;1.00;;
11988;SDS011;6054;50.966;7.094;2023-07-28T11:49:31;3.83;;;1.15;;
11988;SDS011;6054;50.966;7.094;2023-07-28T11:51:58;1.80;;;1.10;;
11988;SDS011;6054;50.966;7.094;2023-07-28T11:54:25;1.40;;;1.30;;
11988;SDS011;6054;50.966;7.094;2023-07-28T11:56:55;1.02;;;1.02;;
11988;SDS011;6054;50.966;7.094;2023-07-28T11:59:23;4.03;;;1.13;;
11988;SDS011;6054;50.966;7.094;2023-07-28T12:01:53;0.80;;;0.80;;
11988;SDS011;6054;50.966;7.094;2023-07-28T12:04:22;0.80;;;0.80;;
11988;SDS011;6054;50.966;7.094;2023-07-28T12:07:00;1.23;;;0.98;;
11988;SDS011;6054;50.966;7.094;2023-07-28T12:09:27;2.05;;;0.95;;
11988;SDS011;6054;50.966;7.094;2023-07-28T12:11:55;1.45;;;1.35;;
11988;SDS011;6054;50.966;7.094;2023-07-28T12:14:30;2.90;;;0.95;;
11988;SDS011;6054;50.966;7.094;2023-07-28T12:16:58;2.08;;;1.00;;
11988;SDS011;6054;50.966;7.094;2023-07-28T12:19:26;1.85;;;0.80;;
11988;SDS011;6054;50.966;7.094;2023-07-28T12:21:52;1.10;;;0.95;;
11988;SDS011;6054;50.966;7.094;2023-07-28T12:24:19;1.08;;;0.90;;
11988;SDS011;6054;50.966;7.094;2023-07-28T12:26:46;3.33;;;1.20;;
11988;SDS011;6054;50.966;7.094;2023-07-28T12:29:15;0.80;;;0.80;;
11988;SDS011;6054;50.966;7.094;2023-07-28T12:31:41;1.00;;;1.00;;
11988;SDS011;6054;50.966;7.094;2023-07-28T12:34:09;0.90;;;0.90;;
11988;SDS011;6054;50.966;7.094;2023-07-28T12:36:36;2.17;;;0.90;;
11988;SDS011;6054;50.966;7.094;2023-07-28T12:39:03;1.02;;;1.00;;
11988;SDS011;6054;50.966;7.094;2023-07-28T12:41:31;1.70;;;1.20;;
11988;SDS011;6054;50.966;7.094;2023-07-28T12:43:57;2.85;;;1.00;;
11988;SDS011;6054;50.966;7.094;2023-07-28T12:46:25;1.23;;;1.05;;
11988;SDS011;6054;50.966;7.094;2023-07-28T12:48:52;1.20;;;1.10;;
11988;SDS011;6054;50.966;7.094;2023-07-28T12:51:19;1.10;;;1.10;;
11988;SDS011;6054;50.966;7.094;2023-07-28T12:53:46;1.55;;;1.00;;
11988;SDS011;6054;50.966;7.094;2023-07-28T12:56:13;1.02;;;1.02;;
11988;SDS011;6054;50.966;7.094;2023-07-28T12:58:40;0.80;;;0.80;;
11988;SDS011;6054;50.966;7.094;2023-07-28T13:01:06;1.00;;;1.00;;
11988;SDS011;6054;50.966;7.094;2023-07-28T13:03:37;1.00;;;1.00;;
11988;SDS011;6054;50.966;7.094;2023-07-28T13:06:04;0.95;;;0.95;;
11988;SDS011;6054;50.966;7.094;2023-07-28T13:08:31;0.90;;;0.90;;
11988;SDS011;6054;50.966;7.094;2023-07-28T13:10:57;1.00;;;1.00;;
11988;SDS011;6054;50.966;7.094;2023-07-28T13:13:24;3.50;;;1.20;;
11988;SDS011;6054;50.966;7.094;2023-07-28T13:15:51;1.33;;;1.20;;
11988;SDS011;6054;50.966;7.094;2023-07-28T13:18:17;1.30;;;1.20;;
11988;SDS011;6054;50.966;7.094;2023-07-28T13:20:45;2.10;;;1.00;;
11988;SDS011;6054;50.966;7.094;2023-07-28T13:23:12;1.55;;;1.08;;
11988;SDS011;6054;50.966;7.094;2023-07-28T13:25:39;1.83;;;1.10;;
11988;SDS011;6054;50.966;7.094;2023-07-28T13:28:06;0.95;;;0.95;;
11988;SDS011;6054;50.966;7.094;2023-07-28T13:30:33;5.00;;;1.10;;
11988;SDS011;6054;50.966;7.094;2023-07-28T13:33:00;2.38;;;1.00;;
11988;SDS011;6054;50.966;7.094;2023-07-28T13:35:28;1.13;;;1.10;;
11988;SDS011;6054;50.966;7.094;2023-07-28T13:37:56;1.10;;;1.10;;
11988;SDS011;6054;50.966;7.094;2023-07-28T13:40:25;1.10;;;1.00;;
11988;SDS011;6054;50.966;7.094;2023-07-28T13:42:52;1.13;;;1.10;;
11988;SDS011;6054;50.966;7.094;2023-07-28T13:45:19;0.93;;;0.93;;
11988;SDS011;6054;50.966;7.094;2023-07-28T13:47:46;0.95;;;0.95;;
11988;SDS011;6054;50.966;7.094;2023-07-28T13:50:12;2.80;;;1.10;;
11988;SDS011;6054;50.966;7.094;2023-07-28T13:52:39;0.88;;;0.88;;
11988;SDS011;6054;50.966;7.094;2023-07-28T13:55:08;0.60;;;0.60;;
11988;SDS011;6054;50.966;7.094;2023-07-28T13:57:34;1.00;;;0.90;;
11988;SDS011;6054;50.966;7.094;2023-07-28T14:00:01;2.50;;;0.73;;
11988;SDS011;6054;50.966;7.094;2023-07-28T14:02:28;0.80;;;0.80;;
11988;SDS011;6054;50.966;7.094;2023-07-28T14:04:55;0.70;;;0.70;;
11988;SDS011;6054;50.966;7.094;2023-07-28T14:07:22;3.20;;;0.90;;
11988;SDS011;6054;50.966;7.094;2023-07-28T14:09:48;0.77;;;0.70;;
11988;SDS011;6054;50.966;7.094;2023-07-28T14:12:16;1.13;;;0.70;;
11988;SDS011;6054;50.966;7.094;2023-07-28T14:14:44;0.80;;;0.80;;
11988;SDS011;6054;50.966;7.094;2023-07-28T14:17:11;0.60;;;0.60;;
11988;SDS011;6054;50.966;7.094;2023-07-28T14:19:38;0.70;;;0.70;;
11988;SDS011;6054;50.966;7.094;2023-07-28T14:22:05;0.50;;;0.50;;
11988;SDS011;6054;50.966;7.094;2023-07-28T14:24:32;0.85;;;0.82;;
11988;SDS011;6054;50.966;7.094;2023-07-28T14:26:59;0.70;;;0.70;;
11988;SDS011;6054;50.966;7.094;2023-07-28T14:29:27;0.60;;;0.60;;
11988;SDS011;6054;50.966;7.094;2023-07-28T14:31:54;0.85;;;0.85;;
11988;SDS011;6054;50.966;7.094;2023-07-28T14:34:20;1.83;;;0.80;;
11988;SDS011;6054;50.966;7.094;2023-07-28T14:36:47;0.98;;;0.80;;
11988;SDS011;6054;50.966;7.094;2023-07-28T14:39:14;1.88;;;0.90;;
11988;SDS011;6054;50.966;7.094;2023-07-28T14:41:41;0.98;;;0.80;;
11988;SDS011;6054;50.966;7.094;2023-07-28T14:44:08;0.70;;;0.70;;
11988;SDS011;6054;50.966;7.094;2023-07-28T14:46:36;1.40;;;0.50;;
11988;SDS011;6054;50.966;7.094;2023-07-28T14:49:03;0.70;;;0.70;;
11988;SDS011;6054;50.966;7.094;2023-07-28T14:51:29;0.90;;;0.70;;
11988;SDS011;6054;50.966;7.094;2023-07-28T14:53:56;2.72;;;0.65;;
11988;SDS011;6054;50.966;7.094;2023-07-28T14:56:23;0.70;;;0.70;;
11988;SDS011;6054;50.966;7.094;2023-07-28T14:58:50;0.95;;;0.95;;
11988;SDS011;6054;50.966;7.094;2023-07-28T15:01:18;1.52;;;0.73;;
11988;SDS011;6054;50.966;7.094;2023-07-28T15:03:46;0.80;;;0.80;;
11988;SDS011;6054;50.966;7.094;2023-07-28T15:06:13;2.72;;;0.80;;
11988;SDS011;6054;50.966;7.094;2023-07-28T15:08:39;1.25;;;0.95;;